Kuwait City, Kuwait
Current Conditions -  °F | °C
As of 6:00 PM on Saturday 25 Oct 2014 (Local Time) from OKBK Reporting Station
Clear Clear  
Wind Chill: 31°   Ceiling: Unl
Heat Index: 31°   Visibility: 6mi
Dew Point:   Wind: 3mph
Humidity: 24%   Direction: 50°NE
Pressure: 29.88"   Gusts: NA
Location:  29.22°N, 47.98°E
Report Text: OKBK 251500Z 05003KT CAVOK 31/08 Q1012 NOSIG
Loading
Personal Weather Stations






























Interactive Weather Map
Tropical Storm Tracking
New forecast layout! Learn more

10-Day Weather Forecast

Advertisements
Track Severe Weather on mobile